createdAt,value
2023-04-01T00:00:56.830Z,72.88
2023-04-01T00:03:26.724Z,72.85
2023-04-01T00:05:55.210Z,71.42
2023-04-01T00:08:25.122Z,73.78
2023-04-01T00:10:53.443Z,74.09
2023-04-01T00:13:22.367Z,73.01
2023-04-01T00:15:51.061Z,72.54
2023-04-01T00:18:19.199Z,72.84
2023-04-01T00:20:48.420Z,73.94
2023-04-01T00:23:17.195Z,72.60
2023-04-01T00:25:49.033Z,73.10
2023-04-01T00:28:17.581Z,73.69
2023-04-01T00:30:45.925Z,73.22
2023-04-01T00:33:14.098Z,73.46
2023-04-01T00:35:42.998Z,73.42
2023-04-01T00:38:12.377Z,73.30
2023-04-01T00:40:42.303Z,72.56
2023-04-01T00:43:18.973Z,74.26
2023-04-01T00:45:48.600Z,75.48
2023-04-01T00:48:21.577Z,74.49
2023-04-01T00:50:53.462Z,73.41
2023-04-01T00:53:22.610Z,73.83
2023-04-01T00:55:55.465Z,74.16
2023-04-01T00:58:28.011Z,73.91
2023-04-01T01:00:57.574Z,75.60
2023-04-01T01:03:26.017Z,74.87
2023-04-01T01:06:26.335Z,73.54
2023-04-01T01:09:08.575Z,74.26
2023-04-01T01:11:43.541Z,74.56
2023-04-01T01:14:26.564Z,74.37
2023-04-01T01:17:01.097Z,75.17
2023-04-01T01:19:59.012Z,73.93
2023-04-01T01:22:41.559Z,74.29
2023-04-01T01:25:22.068Z,73.43
2023-04-01T01:27:58.809Z,73.63
2023-04-01T01:30:45.201Z,73.96
2023-04-01T01:33:47.069Z,74.26
2023-04-01T01:36:20.351Z,73.69
2023-04-01T01:38:50.991Z,75.34
2023-04-01T01:41:21.209Z,75.15
2023-04-01T01:43:52.332Z,74.64
2023-04-01T01:46:24.267Z,74.97
2023-04-01T01:48:54.103Z,75.65
2023-04-01T01:51:24.938Z,76.63
2023-04-01T01:53:53.150Z,75.80
2023-04-01T01:56:25.593Z,75.55
2023-04-01T01:58:57.763Z,76.29
2023-04-01T02:01:28.582Z,76.48
2023-04-01T02:04:01.405Z,76.09
2023-04-01T02:06:36.979Z,75.95
2023-04-01T02:09:07.838Z,78.12
2023-04-01T02:11:40.565Z,76.94
2023-04-01T02:14:12.818Z,75.39
2023-04-01T02:16:45.365Z,76.72
2023-04-01T02:19:15.593Z,75.96
2023-04-01T02:21:46.342Z,76.85
2023-04-01T02:24:17.072Z,76.27
2023-04-01T02:26:47.129Z,76.07
2023-04-01T02:29:16.090Z,75.41
2023-04-01T02:31:45.172Z,74.02
2023-04-01T02:34:14.058Z,74.69
2023-04-01T02:36:42.218Z,74.29
2023-04-01T02:39:11.913Z,73.90
2023-04-01T02:41:44.487Z,73.81
2023-04-01T02:44:13.464Z,75.04
2023-04-01T02:46:41.843Z,76.29
2023-04-01T02:49:10.209Z,76.04
2023-04-01T02:51:38.349Z,76.24
2023-04-01T02:54:06.502Z,77.33
2023-04-01T02:56:35.956Z,77.21
2023-04-01T02:59:04.189Z,77.71
2023-04-01T03:01:32.421Z,77.40
2023-04-01T03:04:00.764Z,77.25
2023-04-01T03:06:28.982Z,77.35
2023-04-01T03:08:57.086Z,77.41
2023-04-01T03:11:26.848Z,77.04
2023-04-01T03:13:56.405Z,77.21
2023-04-01T03:16:26.000Z,78.72
2023-04-01T03:18:55.215Z,78.15
2023-04-01T03:21:25.337Z,77.75
2023-04-01T03:23:53.551Z,78.26
2023-04-01T03:26:22.567Z,78.25
2023-04-01T03:28:50.974Z,78.49
2023-04-01T03:31:22.413Z,79.28
2023-04-01T03:33:55.211Z,80.27
2023-04-01T03:36:24.411Z,80.69
2023-04-01T03:38:52.491Z,79.29
2023-04-01T03:41:27.360Z,79.11
2023-04-01T03:43:56.073Z,79.26
2023-04-01T03:46:25.559Z,79.54
2023-04-01T03:48:53.628Z,79.99
2023-04-01T03:51:21.797Z,78.94
2023-04-01T03:53:51.269Z,78.25
2023-04-01T03:56:19.381Z,78.15
2023-04-01T03:58:47.751Z,79.02
2023-04-01T04:01:17.834Z,78.78
2023-04-01T04:03:48.234Z,77.70
2023-04-01T04:06:16.675Z,77.53
2023-04-01T04:08:45.339Z,77.76
2023-04-01T04:11:14.518Z,78.78
2023-04-01T04:13:44.713Z,78.54
2023-04-01T04:16:13.392Z,78.90
2023-04-01T04:18:47.467Z,79.14
2023-04-01T04:21:16.963Z,78.79
2023-04-01T04:23:45.582Z,77.50
2023-04-01T04:26:17.284Z,78.34
2023-04-01T04:28:50.905Z,77.46
2023-04-01T04:31:22.040Z,78.59
2023-04-01T04:33:53.056Z,79.26
2023-04-01T04:36:22.076Z,78.05
2023-04-01T04:38:51.830Z,79.01
2023-04-01T04:41:23.244Z,77.72
2023-04-01T04:43:53.870Z,75.47
2023-04-01T04:46:22.405Z,75.16
2023-04-01T04:48:59.884Z,76.26
2023-04-01T04:51:28.416Z,76.16
2023-04-01T04:53:56.645Z,76.08
2023-04-01T04:56:35.283Z,75.57
2023-04-01T04:59:08.616Z,76.40
2023-04-01T05:01:51.593Z,75.29
2023-04-01T05:04:21.057Z,76.57
2023-04-01T05:06:49.580Z,77.66
2023-04-01T05:09:18.805Z,77.47
2023-04-01T05:11:47.046Z,77.30
2023-04-01T05:14:16.319Z,76.69
2023-04-01T05:16:50.421Z,77.01
2023-04-01T05:19:19.963Z,77.01
2023-04-01T05:21:48.483Z,77.37
2023-04-01T05:24:17.628Z,76.07
2023-04-01T05:26:46.521Z,77.40
2023-04-01T05:29:14.757Z,75.12
2023-04-01T05:31:43.797Z,76.16
2023-04-01T05:34:11.869Z,74.96
2023-04-01T05:36:42.757Z,75.78
2023-04-01T05:39:11.307Z,76.17
2023-04-01T05:41:41.392Z,74.79
2023-04-01T05:44:09.444Z,76.82
2023-04-01T05:46:43.374Z,76.54
2023-04-01T05:49:31.912Z,76.94
2023-04-01T05:52:01.397Z,76.99
2023-04-01T05:54:30.078Z,76.39
2023-04-01T05:56:58.252Z,76.68
2023-04-01T05:59:26.557Z,77.41
2023-04-01T06:01:55.204Z,77.52
2023-04-01T06:04:23.729Z,75.09
2023-04-01T06:06:52.513Z,77.76
2023-04-01T06:09:28.408Z,79.35
2023-04-01T06:12:16.182Z,76.83
2023-04-01T06:15:04.508Z,73.97
2023-04-01T06:17:46.891Z,74.11
2023-04-01T06:20:27.953Z,76.59
2023-04-01T06:23:21.305Z,76.40
2023-04-01T06:26:05.256Z,79.24
2023-04-01T06:29:11.260Z,78.01
2023-04-01T06:32:02.733Z,76.41
2023-04-01T06:34:50.760Z,73.89
2023-04-01T06:37:34.152Z,76.29
2023-04-01T06:40:14.957Z,75.19
2023-04-01T06:43:02.208Z,75.56
2023-04-01T06:45:57.514Z,74.80
2023-04-01T06:49:23.610Z,76.50
2023-04-01T06:52:16.902Z,76.58
2023-04-01T06:55:19.577Z,77.32
2023-04-01T06:58:19.127Z,78.54
2023-04-01T07:00:50.515Z,76.83
2023-04-01T07:03:24.214Z,75.15
2023-04-01T07:05:52.746Z,77.06
2023-04-01T07:08:26.357Z,76.34
2023-04-01T07:10:59.069Z,76.35
2023-04-01T07:13:52.907Z,74.71
2023-04-01T07:16:26.335Z,74.02
2023-04-01T07:19:00.098Z,73.73
2023-04-01T07:21:42.452Z,73.67
2023-04-01T07:24:24.807Z,75.43
2023-04-01T07:27:04.281Z,74.81
2023-04-01T07:29:38.151Z,75.16
2023-04-01T07:32:17.139Z,76.34
2023-04-01T07:34:58.206Z,76.54
2023-04-01T07:37:32.763Z,76.20
2023-04-01T07:40:13.646Z,76.25
2023-04-01T07:42:59.741Z,75.53
2023-04-01T07:45:34.376Z,73.99
2023-04-01T07:48:14.081Z,73.79
2023-04-01T07:50:51.880Z,73.72
2023-04-01T07:53:28.690Z,73.39
2023-04-01T07:56:09.022Z,75.24
2023-04-01T07:58:53.964Z,75.38
2023-04-01T08:01:57.463Z,71.71
2023-04-01T08:04:37.407Z,72.32
2023-04-01T08:07:12.262Z,71.67
2023-04-01T08:09:55.387Z,72.01
2023-04-01T08:12:56.746Z,72.64
2023-04-01T08:16:06.008Z,73.71
2023-04-01T08:18:49.081Z,71.59
2023-04-01T08:21:23.718Z,72.73
2023-04-01T08:23:54.733Z,72.02
2023-04-01T08:26:33.028Z,72.46
2023-04-01T08:29:06.293Z,70.97
2023-04-01T08:31:39.808Z,73.08
2023-04-01T08:34:17.164Z,73.61
2023-04-01T08:36:50.851Z,72.03
2023-04-01T08:39:24.280Z,72.00
2023-04-01T08:42:25.130Z,72.80
2023-04-01T08:45:25.645Z,71.48
2023-04-01T08:48:35.032Z,70.10
2023-04-01T08:51:33.500Z,71.32
2023-04-01T08:54:17.028Z,68.22
2023-04-01T08:56:55.799Z,67.38
2023-04-01T08:59:38.593Z,68.00
2023-04-01T09:02:42.654Z,67.53
2023-04-01T09:05:46.714Z,66.06
2023-04-01T09:08:32.679Z,68.12
2023-04-01T09:11:26.261Z,66.53
2023-04-01T09:14:57.958Z,68.41
2023-04-01T09:18:03.576Z,68.06
2023-04-01T09:20:48.552Z,68.11
2023-04-01T09:23:37.250Z,68.47
2023-04-01T09:26:19.635Z,68.65
2023-04-01T09:28:58.197Z,71.82
2023-04-01T09:31:50.140Z,71.22
2023-04-01T09:34:54.947Z,72.99
2023-04-01T09:37:37.213Z,71.70
2023-04-01T09:40:19.516Z,69.33
2023-04-01T09:43:18.431Z,69.99
2023-04-01T09:45:54.563Z,69.99
2023-04-01T09:48:46.153Z,71.66
2023-04-01T09:51:28.554Z,74.45
2023-04-01T09:54:09.877Z,73.21
2023-04-01T09:57:20.625Z,75.10
2023-04-01T10:00:22.726Z,72.64
2023-04-01T10:03:29.681Z,72.37
2023-04-01T10:06:49.179Z,73.22
2023-04-01T10:10:05.349Z,70.94
2023-04-01T10:13:01.831Z,73.37
2023-04-01T10:16:02.447Z,73.15
2023-04-01T10:19:04.753Z,76.71
2023-04-01T10:21:58.827Z,76.09
2023-04-01T10:24:58.437Z,75.54
2023-04-01T10:27:50.861Z,76.98
2023-04-01T10:31:28.040Z,79.00
2023-04-01T10:34:26.144Z,79.32
2023-04-01T10:36:55.628Z,76.93
2023-04-01T10:39:57.358Z,74.87
2023-04-01T10:43:25.949Z,71.93
2023-04-01T10:46:33.576Z,71.99
2023-04-01T10:49:30.990Z,73.14
2023-04-01T10:52:20.088Z,68.94
2023-04-01T10:55:34.658Z,68.25
2023-04-01T10:58:51.737Z,67.41
2023-04-01T11:02:17.013Z,68.61
2023-04-01T11:06:14.066Z,65.76
2023-04-01T11:09:19.411Z,68.18
2023-04-01T11:12:38.263Z,68.16
2023-04-01T11:15:39.794Z,69.47
2023-04-01T11:18:53.019Z,69.24
2023-04-01T11:21:49.932Z,74.01
2023-04-01T11:25:01.495Z,72.37
2023-04-01T11:28:31.446Z,72.50
2023-04-01T11:31:19.486Z,70.42
2023-04-01T11:33:56.276Z,70.28
2023-04-01T11:36:40.084Z,69.15
2023-04-01T11:39:26.796Z,69.35
2023-04-01T11:42:17.816Z,71.06
2023-04-01T11:45:22.056Z,75.05
2023-04-01T11:48:05.670Z,79.37
2023-04-01T11:50:44.746Z,83.64
2023-04-01T11:53:38.592Z,84.41
2023-04-01T11:56:21.000Z,85.57
2023-04-01T11:59:21.494Z,85.02
2023-04-01T12:01:59.060Z,81.55
2023-04-01T12:04:55.800Z,78.39
2023-04-01T12:07:36.616Z,73.28
2023-04-01T12:10:17.523Z,70.75
2023-04-01T12:13:01.639Z,68.16
2023-04-01T12:15:47.514Z,68.39
2023-04-01T12:18:20.971Z,68.69
2023-04-01T12:20:54.423Z,69.18
2023-04-01T12:23:39.206Z,72.89
2023-04-01T12:26:28.826Z,72.16
2023-04-01T12:29:21.123Z,73.29
2023-04-01T12:31:57.383Z,76.86
2023-04-01T12:34:42.762Z,79.00
2023-04-01T12:37:20.482Z,81.63
2023-04-01T12:40:08.585Z,82.01
2023-04-01T12:42:52.673Z,78.06
2023-04-01T12:45:37.103Z,80.95
2023-04-01T12:48:28.113Z,78.26
2023-04-01T12:51:37.857Z,76.90
2023-04-01T12:54:44.452Z,77.81
2023-04-01T12:57:34.178Z,77.95
2023-04-01T13:00:16.134Z,78.94
2023-04-01T13:02:59.872Z,78.39
2023-04-01T13:05:52.857Z,78.40
2023-04-01T13:08:34.524Z,77.46
2023-04-01T13:11:17.016Z,76.72
2023-04-01T13:14:25.047Z,75.15
2023-04-01T13:17:06.121Z,72.82
2023-04-01T13:19:43.212Z,73.57
2023-04-01T13:22:24.244Z,73.51
2023-04-01T13:24:59.805Z,72.48
2023-04-01T13:27:36.857Z,72.99
2023-04-01T13:30:24.693Z,70.69
2023-04-01T13:33:00.452Z,72.92
2023-04-01T13:35:41.185Z,72.32
2023-04-01T13:38:41.646Z,71.79
2023-04-01T13:41:20.245Z,73.98
2023-04-01T13:43:53.181Z,73.59
2023-04-01T13:46:40.154Z,74.27
2023-04-01T13:49:48.530Z,75.98
2023-04-01T13:52:49.504Z,76.89
2023-04-01T13:55:36.920Z,74.76
2023-04-01T13:58:33.559Z,74.24
2023-04-01T14:01:11.706Z,76.91
2023-04-01T14:03:59.248Z,75.21
2023-04-01T14:06:38.892Z,75.82
2023-04-01T14:09:25.584Z,76.34
2023-04-01T14:12:03.694Z,73.87
2023-04-01T14:14:47.137Z,72.03
2023-04-01T14:17:45.757Z,71.93
2023-04-01T14:20:27.861Z,70.38
2023-04-01T14:23:15.846Z,69.80
2023-04-01T14:26:22.784Z,69.52
2023-04-01T14:29:04.287Z,69.53
2023-04-01T14:31:56.718Z,71.12
2023-04-01T14:34:37.097Z,71.76
2023-04-01T14:37:21.927Z,72.38
2023-04-01T14:40:16.952Z,71.03
2023-04-01T14:43:03.563Z,72.62
2023-04-01T14:46:00.755Z,74.90
2023-04-01T14:48:34.457Z,73.40
2023-04-01T14:51:11.629Z,74.85
2023-04-01T14:53:46.831Z,73.20
2023-04-01T14:56:35.059Z,77.12
2023-04-01T14:59:03.697Z,77.44
2023-04-01T15:01:45.864Z,76.76
2023-04-01T15:04:39.454Z,76.22
2023-04-01T15:07:26.047Z,74.54
2023-04-01T15:10:06.356Z,77.21
2023-04-01T15:12:45.806Z,78.77
2023-04-01T15:15:28.071Z,77.90
2023-04-01T15:18:10.403Z,78.76
2023-04-01T15:20:52.568Z,77.00
2023-04-01T15:23:34.285Z,78.20
2023-04-01T15:26:30.200Z,81.78
2023-04-01T15:29:25.108Z,83.71
2023-04-01T15:31:59.240Z,82.70
2023-04-01T15:34:38.457Z,86.44
2023-04-01T15:37:17.293Z,85.65
2023-04-01T15:39:56.681Z,85.66
2023-04-01T15:42:35.628Z,86.78
2023-04-01T15:45:36.030Z,87.89
2023-04-01T15:48:08.689Z,87.74
2023-04-01T15:50:53.834Z,87.14
2023-04-01T15:53:37.565Z,86.11
2023-04-01T15:56:18.438Z,85.93
2023-04-01T15:58:59.407Z,85.75
2023-04-01T16:01:36.950Z,85.02
2023-04-01T16:04:25.520Z,83.23
2023-04-01T16:07:11.464Z,84.76
2023-04-01T16:10:01.679Z,84.04
2023-04-01T16:12:50.051Z,83.38
2023-04-01T16:15:29.272Z,84.28
2023-04-01T16:18:12.999Z,84.74
2023-04-01T16:20:56.130Z,84.90
2023-04-01T16:23:32.249Z,85.71
2023-04-01T16:26:09.019Z,85.62
2023-04-01T16:28:44.755Z,84.66
2023-04-01T16:31:19.045Z,84.38
2023-04-01T16:33:53.414Z,85.36
2023-04-01T16:36:30.604Z,85.38
2023-04-01T16:39:13.818Z,85.27
2023-04-01T16:41:49.826Z,85.75
2023-04-01T16:44:22.922Z,85.96
2023-04-01T16:46:56.663Z,86.01
2023-04-01T16:49:38.854Z,85.33
2023-04-01T16:52:17.340Z,85.05
2023-04-01T16:54:58.142Z,86.27
2023-04-01T16:57:30.640Z,85.80
2023-04-01T17:00:05.326Z,84.69
2023-04-01T17:02:39.846Z,84.56
2023-04-01T17:05:14.076Z,84.09
2023-04-01T17:07:51.475Z,83.71
2023-04-01T17:10:39.673Z,85.87
2023-04-01T17:13:35.533Z,84.83
2023-04-01T17:16:17.153Z,85.24
2023-04-01T17:18:54.012Z,86.66
2023-04-01T17:21:28.746Z,83.78
2023-04-01T17:24:11.410Z,86.29
2023-04-01T17:26:48.566Z,86.77
2023-04-01T17:29:30.217Z,85.81
2023-04-01T17:32:12.044Z,86.04
2023-04-01T17:34:49.614Z,85.67
2023-04-01T17:37:33.039Z,85.78
2023-04-01T17:40:16.388Z,87.33
2023-04-01T17:42:55.406Z,85.03
2023-04-01T17:45:30.253Z,84.66
2023-04-01T17:48:14.594Z,85.99
2023-04-01T17:50:55.722Z,86.28
2023-04-01T17:53:37.673Z,87.55
2023-04-01T17:56:24.452Z,87.22
2023-04-01T17:59:03.981Z,84.79
2023-04-01T18:01:47.872Z,84.92
2023-04-01T18:04:42.985Z,87.40
2023-04-01T18:07:34.304Z,87.92
2023-04-01T18:10:23.296Z,86.10
2023-04-01T18:13:20.477Z,89.34
2023-04-01T18:16:00.628Z,88.46
2023-04-01T18:18:49.235Z,89.47
2023-04-01T18:21:27.664Z,87.89
2023-04-01T18:24:02.619Z,88.07
2023-04-01T18:26:34.246Z,89.07
2023-04-01T18:29:13.361Z,88.25
2023-04-01T18:31:47.975Z,89.22
2023-04-01T18:34:29.346Z,86.88
2023-04-01T18:37:01.811Z,87.53
2023-04-01T18:39:37.796Z,88.71
2023-04-01T18:42:18.360Z,87.68
2023-04-01T18:44:51.137Z,86.73
2023-04-01T18:47:29.463Z,86.93
2023-04-01T18:50:04.460Z,87.97
2023-04-01T18:52:38.297Z,88.08
2023-04-01T18:55:35.949Z,87.67
2023-04-01T18:58:27.912Z,88.43
2023-04-01T19:01:10.000Z,88.34
2023-04-01T19:03:48.293Z,89.97
2023-04-01T19:06:24.106Z,90.74
2023-04-01T19:08:54.703Z,88.84
2023-04-01T19:11:35.205Z,89.53
2023-04-01T19:14:15.299Z,89.26
2023-04-01T19:16:54.857Z,89.03
2023-04-01T19:19:44.564Z,89.99
2023-04-01T19:22:26.889Z,89.15
2023-04-01T19:25:18.197Z,89.80
2023-04-01T19:27:51.069Z,89.58
2023-04-01T19:30:33.944Z,91.98
2023-04-01T19:33:21.909Z,91.17
2023-04-01T19:35:59.965Z,91.95
2023-04-01T19:38:36.005Z,93.08
2023-04-01T19:41:12.339Z,93.40
2023-04-01T19:43:55.762Z,94.68
2023-04-01T19:46:32.922Z,93.71
2023-04-01T19:49:22.836Z,94.76
2023-04-01T19:51:59.430Z,94.53
2023-04-01T19:54:35.074Z,94.25
2023-04-01T19:57:15.040Z,94.96
2023-04-01T19:59:50.583Z,94.98
2023-04-01T20:02:34.653Z,96.34
2023-04-01T20:05:13.553Z,96.62
2023-04-01T20:07:50.383Z,96.10
2023-04-01T20:10:24.038Z,94.73
2023-04-01T20:13:00.052Z,94.77
2023-04-01T20:15:35.306Z,94.63
2023-04-01T20:18:06.439Z,94.12
2023-04-01T20:20:36.346Z,92.82
2023-04-01T20:23:35.842Z,91.64
2023-04-01T20:26:08.786Z,95.24
2023-04-01T20:28:45.880Z,95.99
2023-04-01T20:31:33.462Z,95.56
2023-04-01T20:34:16.294Z,93.25
2023-04-01T20:36:58.710Z,94.29
2023-04-01T20:39:44.172Z,94.26
2023-04-01T20:42:33.822Z,92.62
2023-04-01T20:45:17.657Z,90.75
2023-04-01T20:47:59.164Z,91.51
2023-04-01T20:50:31.739Z,92.68
2023-04-01T20:53:07.875Z,93.50
2023-04-01T20:56:09.123Z,93.46
2023-04-01T20:58:49.292Z,89.89
2023-04-01T21:01:31.388Z,90.42
2023-04-01T21:04:18.968Z,89.87
2023-04-01T21:06:57.216Z,91.57
2023-04-01T21:09:43.837Z,92.35
2023-04-01T21:12:28.587Z,92.84
2023-04-01T21:15:32.237Z,94.79
2023-04-01T21:18:12.789Z,94.03
2023-04-01T21:20:58.012Z,94.55
2023-04-01T21:23:40.280Z,93.73
2023-04-01T21:26:23.176Z,92.53
2023-04-01T21:29:27.520Z,92.76
2023-04-01T21:32:07.541Z,92.90
2023-04-01T21:34:52.694Z,92.56
2023-04-01T21:37:47.550Z,93.07
2023-04-01T21:40:53.144Z,91.79
2023-04-01T21:43:41.897Z,91.83
2023-04-01T21:46:38.228Z,91.43
2023-04-01T21:49:28.956Z,90.74
2023-04-01T21:52:11.849Z,92.75
2023-04-01T21:55:23.533Z,91.99
2023-04-01T21:58:22.899Z,93.18
2023-04-01T22:00:58.645Z,94.95
2023-04-01T22:04:05.129Z,95.40
2023-04-01T22:06:39.094Z,93.06
2023-04-01T22:09:15.205Z,91.85
2023-04-01T22:11:55.423Z,92.13
2023-04-01T22:14:32.552Z,90.99
2023-04-01T22:17:04.529Z,91.09
2023-04-01T22:19:42.768Z,90.79
2023-04-01T22:22:19.173Z,92.98
2023-04-01T22:24:59.858Z,92.68
2023-04-01T22:27:34.086Z,91.27
2023-04-01T22:30:12.599Z,90.31
2023-04-01T22:32:45.716Z,91.62
2023-04-01T22:35:29.246Z,93.79
2023-04-01T22:38:05.869Z,92.63
2023-04-01T22:40:40.709Z,91.90
2023-04-01T22:43:13.800Z,90.44
2023-04-01T22:46:14.799Z,90.76
2023-04-01T22:48:46.530Z,91.16
2023-04-01T22:51:21.174Z,91.75
2023-04-01T22:54:01.670Z,88.93
2023-04-01T22:56:35.007Z,87.94
2023-04-01T22:59:11.420Z,87.56
2023-04-01T23:01:46.981Z,86.57
2023-04-01T23:04:19.259Z,88.21
2023-04-01T23:06:54.823Z,87.31
2023-04-01T23:09:26.159Z,85.88
2023-04-01T23:11:57.254Z,85.19
2023-04-01T23:14:44.655Z,86.64
2023-04-01T23:17:36.207Z,86.99
2023-04-01T23:20:17.915Z,86.68
2023-04-01T23:22:56.964Z,86.23
2023-04-01T23:25:41.025Z,86.27
2023-04-01T23:28:30.561Z,87.38
2023-04-01T23:30:58.785Z,86.19
2023-04-01T23:33:30.974Z,86.75
2023-04-01T23:36:06.400Z,88.32
2023-04-01T23:38:39.564Z,91.01
2023-04-01T23:41:08.965Z,90.72
2023-04-01T23:43:41.015Z,90.66
2023-04-01T23:46:10.167Z,90.50
2023-04-01T23:48:42.080Z,90.86
2023-04-01T23:51:16.782Z,92.69
2023-04-01T23:53:48.517Z,92.40
2023-04-01T23:56:19.515Z,90.13
2023-04-01T23:58:53.428Z,90.30
